Time;durP1;ratioP1;P1;durP2;ratioP2;P2;SDS_P1;SDS_P2;PMS_P1;PMS_P2;Temp;Humidity;BMP_temperature;BMP_pressure;BME280_temperature;BME280_humidity;BME280_pressure;Samples;Min_cycle;Max_cycle;Signal;HPM_P1;HPM_P2
2022/05/01 00:03:31;;;;;;;3.33;2.70;;;15.30;59.30;;;;;;10496972;28;20136;-59
2022/05/01 00:08:32;;;;;;;3.10;2.67;;;15.30;59.30;;;;;;10496801;28;20037;-61
2022/05/01 00:13:34;;;;;;;3.45;2.47;;;15.30;59.30;;;;;;10512173;28;20085;-60
2022/05/01 00:18:36;;;;;;;3.30;3.00;;;15.30;59.30;;;;;;10496240;28;20028;-59
2022/05/01 00:23:38;;;;;;;2.72;2.28;;;15.30;59.30;;;;;;10510666;28;20109;-60
2022/05/01 00:28:39;;;;;;;3.75;2.80;;;15.30;59.30;;;;;;10511859;28;20121;-61
2022/05/01 00:39:03;;;;;;;3.17;2.67;;;15.30;59.30;;;;;;10495735;28;20044;-61
2022/05/01 00:44:11;;;;;;;3.92;2.38;;;15.30;59.30;;;;;;10510886;28;20031;-60
2022/05/01 00:49:19;;;;;;;3.30;2.75;;;15.30;59.30;;;;;;10510778;28;20024;-61
2022/05/01 00:54:29;;;;;;;3.13;2.60;;;15.30;59.30;;;;;;10510855;28;20028;-61
2022/05/01 00:59:31;;;;;;;3.63;2.92;;;15.30;59.30;;;;;;10510508;28;20028;-60
2022/05/01 01:04:32;;;;;;;2.63;2.25;;;15.30;59.30;;;;;;10510392;28;20446;-61
2022/05/01 01:09:35;;;;;;;3.28;2.78;;;15.30;59.30;;;;;;10494274;28;20095;-61
2022/05/01 01:14:36;;;;;;;3.35;2.55;;;15.30;59.30;;;;;;10494758;28;20028;-62
2022/05/01 01:19:38;;;;;;;2.97;2.42;;;15.30;59.30;;;;;;10494352;28;20028;-61
2022/05/01 01:24:43;;;;;;;3.10;2.42;;;15.20;59.30;;;;;;10494255;28;20384;-61
2022/05/01 01:35:08;;;;;;;3.92;3.10;;;15.30;59.30;;;;;;10506975;28;20515;-61
2022/05/01 01:40:20;;;;;;;3.30;2.53;;;15.20;59.30;;;;;;10509211;28;20169;-60
2022/05/01 01:45:21;;;;;;;3.20;2.58;;;15.30;59.30;;;;;;10493899;28;20024;-61
2022/05/01 01:50:22;;;;;;;3.42;2.70;;;15.30;59.30;;;;;;10493739;28;20040;-61
2022/05/01 01:55:22;;;;;;;3.92;2.60;;;15.20;59.30;;;;;;10494236;28;20027;-61
2022/05/01 02:00:24;;;;;;;3.22;2.45;;;15.30;59.30;;;;;;10493600;28;20488;-60
2022/05/01 02:05:25;;;;;;;2.90;2.17;;;15.20;59.30;;;;;;10493641;28;20481;-60
2022/05/01 02:10:26;;;;;;;3.00;2.53;;;15.20;59.30;;;;;;10508979;28;20103;-61
2022/05/01 02:15:33;;;;;;;4.05;2.78;;;15.20;59.30;;;;;;10493909;28;20036;-59
2022/05/01 02:25:53;;;;;;;3.75;2.75;;;15.20;59.30;;;;;;10432130;28;20030;-60
2022/05/01 02:30:54;;;;;;;3.58;2.97;;;15.20;59.30;;;;;;10417720;28;20117;-61
2022/05/01 02:35:55;;;;;;;3.42;3.05;;;15.20;59.30;;;;;;10417802;28;20073;-58
2022/05/01 02:40:55;;;;;;;2.58;2.30;;;15.20;59.30;;;;;;10417708;28;20504;-60
2022/05/01 02:45:56;;;;;;;3.00;2.50;;;15.20;59.30;;;;;;10417533;28;20057;-61
2022/05/01 02:50:57;;;;;;;2.55;2.15;;;15.20;59.30;;;;;;10417192;28;20049;-61
2022/05/01 02:56:01;;;;;;;3.80;2.97;;;15.20;59.40;;;;;;10417106;28;20061;-61
2022/05/01 03:01:02;;;;;;;3.40;2.88;;;15.20;59.30;;;;;;10416691;28;20029;-61
2022/05/01 03:06:03;;;;;;;4.63;3.22;;;15.20;59.30;;;;;;10416740;28;20029;-58
2022/05/01 03:11:04;;;;;;;3.28;2.58;;;15.20;59.30;;;;;;10416209;28;20076;-61
2022/05/01 03:16:05;;;;;;;3.63;3.33;;;15.20;59.30;;;;;;10431652;28;20112;-59
2022/05/01 03:26:25;;;;;;;4.77;3.47;;;15.20;59.40;;;;;;10498633;28;20060;-59
2022/05/01 03:31:27;;;;;;;4.13;3.30;;;15.20;59.40;;;;;;10497827;28;20132;-60
2022/05/01 03:36:27;;;;;;;3.47;2.60;;;15.20;59.40;;;;;;10497891;28;20074;-61
2022/05/01 03:41:28;;;;;;;3.47;2.70;;;15.10;59.30;;;;;;10514068;28;20392;-61
2022/05/01 03:46:29;;;;;;;4.03;2.70;;;15.10;59.30;;;;;;10513138;28;20219;-61
2022/05/01 03:51:33;;;;;;;3.72;3.20;;;15.20;59.40;;;;;;10497233;28;20021;-61
2022/05/01 03:56:33;;;;;;;3.03;2.65;;;15.20;59.40;;;;;;10497243;28;20074;-61
2022/05/01 04:01:34;;;;;;;3.55;3.00;;;15.10;59.30;;;;;;10497072;28;20397;-61
2022/05/01 04:06:35;;;;;;;5.55;3.50;;;15.10;59.30;;;;;;10511731;28;20115;-57
2022/05/01 04:11:35;;;;;;;3.88;3.00;;;15.10;59.30;;;;;;10492199;28;20387;-61
2022/05/01 04:16:36;;;;;;;3.35;2.75;;;15.10;59.40;;;;;;10495207;28;20554;-61
2022/05/01 04:21:38;;;;;;;4.57;3.53;;;15.10;59.40;;;;;;10512821;28;20052;-57
2022/05/01 04:26:39;;;;;;;4.13;3.00;;;15.10;59.40;;;;;;10496945;28;20038;-61
2022/05/01 04:31:39;;;;;;;3.95;3.28;;;15.10;59.40;;;;;;10496598;28;20457;-60
2022/05/01 04:36:41;;;;;;;3.78;2.95;;;15.10;59.40;;;;;;10496674;28;20060;-61
2022/05/01 04:41:41;;;;;;;4.07;2.95;;;15.10;59.30;;;;;;10495989;28;20350;-60
2022/05/01 04:46:43;;;;;;;4.45;3.45;;;15.10;59.30;;;;;;10496344;28;20029;-60
2022/05/01 04:51:45;;;;;;;3.83;3.40;;;15.10;59.40;;;;;;10496336;28;20024;-61
2022/05/01 05:02:05;;;;;;;3.87;3.10;;;15.10;59.40;;;;;;10495805;28;20079;-60
2022/05/01 05:07:06;;;;;;;4.90;3.45;;;15.10;59.40;;;;;;10495836;28;20110;-61
2022/05/01 05:12:09;;;;;;;4.32;3.55;;;15.10;59.40;;;;;;10495513;28;20032;-59
2022/05/01 05:17:10;;;;;;;4.38;3.38;;;15.10;59.40;;;;;;10510963;28;20028;-61
2022/05/01 05:22:11;;;;;;;3.58;3.25;;;15.10;59.40;;;;;;10511042;28;20104;-61
2022/05/01 05:27:13;;;;;;;3.55;2.95;;;15.00;59.40;;;;;;10495670;28;20032;-60
2022/05/01 05:32:13;;;;;;;4.07;3.65;;;15.10;59.40;;;;;;10510565;28;20048;-60
2022/05/01 05:37:16;;;;;;;3.85;3.15;;;15.00;59.40;;;;;;10495149;28;20385;-60
2022/05/01 05:42:18;;;;;;;3.65;3.30;;;15.00;59.40;;;;;;10495235;28;20076;-61
2022/05/01 05:47:18;;;;;;;3.83;3.30;;;15.00;60.10;;;;;;10495061;28;20075;-61
2022/05/01 05:52:19;;;;;;;3.65;3.25;;;15.00;59.40;;;;;;10495196;28;20472;-60
2022/05/01 05:57:20;;;;;;;4.43;4.00;;;15.00;59.50;;;;;;10516629;28;20030;-61
2022/05/01 06:02:20;;;;;;;4.13;3.30;;;15.00;59.40;;;;;;10502731;28;20111;-60
2022/05/01 06:07:21;;;;;;;3.65;3.25;;;15.00;59.50;;;;;;10502576;28;20033;-61
2022/05/01 06:12:22;;;;;;;5.20;3.30;;;15.00;59.50;;;;;;10518054;28;20036;-61
2022/05/01 06:17:22;;;;;;;4.00;3.15;;;15.00;59.50;;;;;;10518004;28;20056;-61
2022/05/01 06:22:23;;;;;;;4.40;3.63;;;15.00;59.50;;;;;;10501844;28;20025;-61
2022/05/01 06:27:23;;;;;;;4.15;3.30;;;15.00;59.60;;;;;;10501835;28;20104;-60
2022/05/01 06:32:25;;;;;;;4.03;3.15;;;15.00;59.60;;;;;;10501521;28;20484;-61
2022/05/01 06:37:25;;;;;;;5.65;3.92;;;15.00;59.60;;;;;;10517096;28;20042;-60
2022/05/01 06:42:26;;;;;;;4.65;3.53;;;15.00;59.60;;;;;;10501313;28;20033;-58
2022/05/01 06:47:27;;;;;;;5.18;3.40;;;15.00;59.60;;;;;;10516748;28;20472;-60
2022/05/01 06:52:28;;;;;;;3.97;3.20;;;15.00;59.70;;;;;;10516377;28;20055;-60
2022/05/01 06:57:29;;;;;;;3.83;3.35;;;15.00;59.80;;;;;;10516372;28;20108;-61
2022/05/01 07:02:29;;;;;;;4.20;3.15;;;15.00;59.80;;;;;;10500409;28;20033;-61
2022/05/01 07:07:30;;;;;;;4.15;3.33;;;15.00;59.90;;;;;;10499909;28;20107;-61
2022/05/01 07:12:31;;;;;;;4.15;3.05;;;15.00;60.00;;;;;;10516290;28;20068;-59
2022/05/01 07:17:33;;;;;;;4.38;3.50;;;15.10;60.10;;;;;;10500103;28;20127;-61
2022/05/01 07:22:33;;;;;;;4.60;3.47;;;15.00;60.10;;;;;;10515108;28;20028;-60
2022/05/01 07:27:34;;;;;;;3.90;3.17;;;15.00;60.10;;;;;;10500118;28;20403;-60
2022/05/01 07:32:35;;;;;;;4.20;3.30;;;15.00;60.10;;;;;;10499288;28;20443;-61
2022/05/01 07:37:35;;;;;;;5.32;3.83;;;15.10;60.30;;;;;;10499044;28;20084;-58
2022/05/01 07:42:36;;;;;;;5.70;3.33;;;15.10;60.60;;;;;;10514730;28;20071;-59
2022/05/01 07:47:37;;;;;;;4.18;3.55;;;15.10;60.40;;;;;;10498962;28;20427;-58
2022/05/01 07:52:37;;;;;;;4.07;3.50;;;15.20;60.40;;;;;;10498388;28;20433;-61
2022/05/01 07:57:38;;;;;;;5.00;3.38;;;15.10;60.30;;;;;;10498517;28;20029;-60
2022/05/01 08:07:59;;;;;;;;;;;15.20;60.50;;;;;;10499253;28;20127;-58
2022/05/01 08:12:59;;;;;;;5.60;3.25;;;15.10;60.30;;;;;;10513365;28;19916;-60
2022/05/01 08:23:20;;;;;;;4.43;3.50;;;15.10;60.50;;;;;;10497264;28;20040;-60
2022/05/01 08:28:21;;;;;;;4.25;3.85;;;15.10;60.40;;;;;;10496916;28;20271;-61
2022/05/01 08:33:22;;;;;;;4.20;3.10;;;15.10;60.40;;;;;;10512358;28;20072;-60
2022/05/01 08:38:22;;;;;;;4.35;3.30;;;15.10;60.40;;;;;;10496699;28;20056;-60
2022/05/01 08:43:25;;;;;;;6.55;4.53;;;15.10;60.40;;;;;;10512157;28;20029;-61
2022/05/01 08:49:04;;;;;;;4.07;3.50;;;15.10;60.30;;;;;;10512252;28;20607;-62
2022/05/01 08:54:14;;;;;;;4.38;3.40;;;15.10;60.30;;;;;;10509872;28;20090;-60
2022/05/01 08:59:16;;;;;;;;;;;15.10;60.30;;;;;;10511947;28;20036;-61
2022/05/01 09:04:17;;;;;;;3.42;3.00;;;15.10;60.40;;;;;;10495938;28;19942;-60
2022/05/01 09:09:22;;;;;;;4.55;3.33;;;15.10;60.40;;;;;;10495833;28;20373;-61
2022/05/01 09:14:26;;;;;;;4.40;3.47;;;15.10;60.40;;;;;;10510919;28;20028;-60
2022/05/01 09:19:30;;;;;;;5.03;3.60;;;15.10;60.30;;;;;;10495730;28;20048;-60
2022/05/01 09:24:31;;;;;;;3.50;3.20;;;15.10;60.40;;;;;;10495355;28;20056;-60
2022/05/01 09:29:32;;;;;;;3.33;3.00;;;15.10;60.40;;;;;;10495091;28;20062;-61
2022/05/01 09:34:35;;;;;;;4.35;2.95;;;15.10;60.40;;;;;;10494927;28;20568;-60
2022/05/01 09:39:38;;;;;;;5.18;3.00;;;15.00;60.30;;;;;;10495310;28;20024;-61
2022/05/01 09:44:39;;;;;;;3.53;2.67;;;15.10;60.40;;;;;;10510674;28;20023;-61
2022/05/01 09:49:50;;;;;;;4.38;3.10;;;15.10;60.40;;;;;;10494918;28;20036;-61
2022/05/01 09:55:05;;;;;;;4.55;3.13;;;15.10;60.50;;;;;;10510505;28;20479;-61
2022/05/01 10:00:07;;;;;;;3.78;2.92;;;15.10;60.30;;;;;;10494691;28;20032;-59
2022/05/01 10:05:09;;;;;;;3.90;3.28;;;15.00;60.40;;;;;;10510192;28;20107;-61
2022/05/01 10:10:11;;;;;;;3.38;2.67;;;15.00;60.30;;;;;;10510021;28;20081;-60
2022/05/01 10:15:14;;;;;;;5.28;3.30;;;15.00;60.30;;;;;;10494439;28;20029;-61
2022/05/01 10:20:15;;;;;;;3.65;3.05;;;15.10;60.30;;;;;;10509989;28;20029;-60
2022/05/01 10:25:17;;;;;;;3.25;2.80;;;15.10;60.30;;;;;;10508512;28;20047;-61
2022/05/01 10:36:47;;;;;;;4.07;3.10;;;15.10;60.40;;;;;;10507979;28;20473;-62
2022/05/01 10:41:48;;;;;;;5.30;3.75;;;15.10;60.40;;;;;;10496720;28;20507;-61
2022/05/01 10:46:55;;;;;;;4.00;3.63;;;15.10;60.40;;;;;;10516928;28;20029;-60
2022/05/01 10:52:20;;;;;;;3.33;3.00;;;15.10;60.40;;;;;;10500853;28;20031;-60
2022/05/01 10:57:22;;;;;;;3.72;3.25;;;15.10;60.50;;;;;;10500935;28;20400;-61
2022/05/01 11:02:41;;;;;;;3.83;3.20;;;15.10;60.50;;;;;;10500629;28;20039;-60
2022/05/01 11:07:42;;;;;;;3.70;2.70;;;15.10;60.50;;;;;;10500368;28;20035;-60
2022/05/01 11:12:44;;;;;;;3.35;2.63;;;15.10;60.50;;;;;;10515638;28;20054;-61
2022/05/01 11:17:47;;;;;;;3.85;2.90;;;15.10;60.50;;;;;;10500105;28;20136;-61
2022/05/01 11:22:49;;;;;;;4.40;3.30;;;15.10;60.50;;;;;;10499911;28;20028;-61
2022/05/01 11:27:52;;;;;;;3.53;2.58;;;15.20;60.50;;;;;;10499571;28;20116;-61
2022/05/01 11:33:10;;;;;;;4.45;3.40;;;15.20;60.50;;;;;;10499113;28;20049;-61
2022/05/01 11:38:11;;;;;;;4.25;2.67;;;15.20;60.50;;;;;;10514975;28;20082;-61
2022/05/01 11:43:20;;;;;;;3.40;2.90;;;15.20;60.50;;;;;;10498828;28;20111;-58
2022/05/01 11:48:22;;;;;;;3.47;2.80;;;15.30;60.40;;;;;;10498690;28;20107;-60
2022/05/01 11:53:23;;;;;;;3.75;3.03;;;15.30;60.40;;;;;;10498578;28;20523;-61
2022/05/01 12:03:49;;;;;;;3.60;2.80;;;15.40;60.40;;;;;;10498786;28;20451;-61
2022/05/01 12:08:49;;;;;;;4.10;3.05;;;15.40;60.40;;;;;;10497867;28;20067;-61
2022/05/01 12:14:06;;;;;;;3.38;2.78;;;15.40;60.40;;;;;;10497763;28;20086;-60
2022/05/01 12:19:07;;;;;;;4.88;3.20;;;15.40;60.40;;;;;;10497499;28;20024;-59
2022/05/01 12:24:10;;;;;;;3.03;2.55;;;15.40;60.30;;;;;;10495330;28;20473;-61
2022/05/01 12:29:12;;;;;;;3.72;2.65;;;15.50;60.40;;;;;;10497069;28;20040;-60
2022/05/01 12:34:26;;;;;;;3.40;2.58;;;15.50;60.20;;;;;;10496625;28;20040;-60
2022/05/01 12:39:29;;;;;;;2.63;2.17;;;15.50;60.30;;;;;;10496980;28;20439;-59
2022/05/01 12:44:30;;;;;;;3.97;2.72;;;15.50;60.30;;;;;;10512145;28;20413;-61
2022/05/01 12:49:30;;;;;;;3.13;2.40;;;15.50;60.30;;;;;;10496473;28;20104;-60
2022/05/01 12:54:31;;;;;;;3.00;2.45;;;15.50;60.40;;;;;;10511627;28;20091;-61
2022/05/01 12:59:33;;;;;;;4.05;2.75;;;15.50;60.50;;;;;;10495901;28;20052;-61
2022/05/01 13:04:34;;;;;;;2.50;2.03;;;15.50;60.60;;;;;;10496043;28;20039;-61
2022/05/01 13:09:49;;;;;;;4.65;3.28;;;15.50;60.60;;;;;;10495668;28;20417;-60
2022/05/01 13:14:59;;;;;;;3.83;2.28;;;15.40;60.60;;;;;;10496122;28;20536;-60
2022/05/01 13:20:00;;;;;;;3.75;2.95;;;15.50;60.70;;;;;;10495451;28;20032;-60
2022/05/01 13:25:01;;;;;;;4.13;3.13;;;15.50;60.70;;;;;;10495719;28;20049;-61
2022/05/01 13:30:02;;;;;;;3.28;2.88;;;15.40;60.60;;;;;;10495056;28;20044;-60
2022/05/01 13:35:03;;;;;;;3.92;2.92;;;15.40;60.70;;;;;;10495113;28;20044;-60
2022/05/01 13:45:24;;;;;;;;;;;15.40;60.70;;;;;;10495514;28;20037;-61
2022/05/01 13:50:25;;;;;;;2.70;2.38;;;15.40;60.70;;;;;;10495244;28;20338;-60
2022/05/01 13:55:26;;;;;;;3.70;2.90;;;15.40;60.70;;;;;;10510268;28;20021;-61
2022/05/01 14:00:27;;;;;;;4.03;2.83;;;15.40;60.70;;;;;;10494704;28;20533;-60
2022/05/01 14:05:28;;;;;;;3.35;2.45;;;15.40;60.70;;;;;;10494821;28;20090;-60
2022/05/01 14:10:29;;;;;;;3.40;2.47;;;15.40;60.60;;;;;;10494365;28;20071;-60
2022/05/01 14:15:29;;;;;;;3.53;2.70;;;15.40;60.60;;;;;;10511285;28;20070;-61
2022/05/01 14:20:32;;;;;;;3.70;2.90;;;15.50;60.60;;;;;;10502253;28;20026;-62
2022/05/01 14:25:33;;;;;;;3.22;2.40;;;15.50;60.60;;;;;;10499835;28;20032;-61
2022/05/01 14:30:41;;;;;;;3.47;2.58;;;15.50;61.10;;;;;;10517396;28;20029;-60
2022/05/01 14:35:49;;;;;;;2.40;2.20;;;15.50;60.50;;;;;;10516834;28;20035;-60
2022/05/01 14:40:50;;;;;;;3.22;2.70;;;15.50;60.40;;;;;;10501649;28;20028;-61
2022/05/01 14:46:05;;;;;;;3.50;2.72;;;15.50;60.50;;;;;;10517394;28;20036;-60
2022/05/01 14:51:08;;;;;;;3.72;2.75;;;15.50;60.50;;;;;;10515853;28;20477;-61
2022/05/01 14:56:09;;;;;;;3.22;2.50;;;15.50;60.60;;;;;;10500867;28;20021;-61
2022/05/01 15:06:30;;;;;;;3.43;2.57;;;15.50;60.50;;;;;;10500972;28;20427;-61
2022/05/01 15:11:36;;;;;;;4.03;2.78;;;15.50;60.50;;;;;;10516015;28;20025;-61
2022/05/01 15:16:40;;;;;;;3.22;2.80;;;15.50;60.50;;;;;;10500566;28;20380;-61
2022/05/01 15:27:25;;;;;;;3.38;2.92;;;15.50;60.50;;;;;;10500191;28;20158;-60
2022/05/01 15:32:29;;;;;;;2.95;2.45;;;15.60;60.50;;;;;;10514416;28;20565;-61
2022/05/01 15:37:38;;;;;;;2.78;2.25;;;15.60;60.50;;;;;;10499546;28;20381;-60
2022/05/01 15:42:41;;;;;;;2.75;2.13;;;15.60;60.50;;;;;;10499286;28;20032;-61
2022/05/01 15:47:43;;;;;;;3.45;2.55;;;15.60;60.60;;;;;;10499052;28;20043;-60
2022/05/01 15:58:04;;;;;;;;;;;15.60;61.20;;;;;;10512877;28;20040;-61
2022/05/01 16:03:05;;;;;;;4.47;3.00;;;15.60;60.60;;;;;;10499001;28;19908;-61
2022/05/01 16:08:32;;;;;;;3.72;2.72;;;15.60;60.60;;;;;;10497919;28;20362;-61
2022/05/01 16:13:44;;;;;;;3.20;2.42;;;15.60;60.70;;;;;;10497677;28;20028;-60
2022/05/01 16:19:04;;;;;;;2.92;2.45;;;15.60;60.70;;;;;;10498346;28;20039;-60
2022/05/01 16:24:43;;;;;;;;;;;15.60;60.70;;;;;;10497815;28;20044;-62
2022/05/01 16:29:57;;;;;;;3.03;2.55;;;15.50;60.70;;;;;;10484736;28;19908;-61
2022/05/01 16:35:08;;;;;;;3.15;2.53;;;15.50;60.70;;;;;;10496991;28;20052;-60
2022/05/01 16:40:13;;;;;;;3.15;2.70;;;15.50;60.70;;;;;;10511832;28;20077;-59
2022/05/01 16:45:14;;;;;;;2.80;2.33;;;15.50;60.80;;;;;;10495546;28;20039;-60
2022/05/01 16:50:15;;;;;;;3.30;2.63;;;15.50;60.80;;;;;;10511907;28;20100;-60
2022/05/01 16:55:19;;;;;;;3.03;2.45;;;15.50;61.40;;;;;;10511947;28;20097;-61
2022/05/01 17:00:23;;;;;;;3.20;2.03;;;15.50;60.80;;;;;;10496292;28;20414;-61
2022/05/01 17:05:56;;;;;;;3.03;2.45;;;15.50;60.80;;;;;;10496363;28;20024;-60
2022/05/01 17:11:40;;;;;;;3.22;2.53;;;15.50;60.80;;;;;;10510333;28;20021;-59
2022/05/01 17:17:19;;;;;;;2.45;1.98;;;15.50;60.80;;;;;;10496073;28;20595;-60
2022/05/01 17:22:46;;;;;;;3.22;2.60;;;15.50;60.80;;;;;;10481572;28;20021;-62
2022/05/01 17:27:54;;;;;;;2.70;2.20;;;15.50;60.80;;;;;;10453975;28;20082;-61
2022/05/01 17:33:18;;;;;;;4.28;2.72;;;15.50;60.90;;;;;;10453790;28;20443;-60
2022/05/01 17:38:19;;;;;;;2.38;2.13;;;15.50;60.90;;;;;;10468425;28;20429;-60
2022/05/01 17:43:28;;;;;;;2.80;2.35;;;15.40;60.90;;;;;;10453951;28;20107;-61
2022/05/01 17:48:37;;;;;;;3.33;2.53;;;15.50;60.90;;;;;;10453781;28;20037;-61
2022/05/01 17:53:46;;;;;;;2.40;2.00;;;15.40;60.70;;;;;;10462006;28;20461;-60
2022/05/01 17:58:47;;;;;;;3.13;2.55;;;15.40;60.70;;;;;;10477644;28;20461;-61
2022/05/01 18:15:38;;;;;;;3.00;2.50;;;15.40;60.70;;;;;;10474280;28;20444;-62
2022/05/01 18:20:48;;;;;;;3.03;2.42;;;15.40;60.60;;;;;;10460423;28;20044;-62
2022/05/01 18:26:08;;;;;;;3.10;2.80;;;15.40;60.60;;;;;;10501974;28;20036;-62
2022/05/01 18:31:14;;;;;;;2.85;2.50;;;15.40;60.60;;;;;;10517322;28;20076;-61
2022/05/01 18:36:17;;;;;;;2.80;2.40;;;15.50;60.50;;;;;;10501685;28;20024;-61
2022/05/01 18:41:32;;;;;;;2.85;2.55;;;15.40;60.50;;;;;;10501754;28;20740;-62
2022/05/01 18:46:36;;;;;;;2.80;2.40;;;15.40;60.50;;;;;;10501341;28;20037;-61
2022/05/01 18:51:37;;;;;;;2.60;2.30;;;15.40;60.40;;;;;;10516536;28;20507;-61
2022/05/01 18:56:40;;;;;;;2.95;2.65;;;15.40;60.40;;;;;;10501109;28;20490;-60
2022/05/01 19:01:42;;;;;;;3.05;2.47;;;15.40;60.40;;;;;;10500000;28;20094;-60
2022/05/01 19:06:52;;;;;;;2.58;2.10;;;15.40;60.40;;;;;;10516082;28;20058;-59
2022/05/01 19:12:15;;;;;;;3.25;2.72;;;15.40;60.40;;;;;;10516083;28;20021;-61
2022/05/01 19:17:37;;;;;;;3.20;2.90;;;15.40;60.30;;;;;;10500845;28;20389;-61
2022/05/01 19:23:09;;;;;;;3.70;2.55;;;15.50;60.40;;;;;;10500586;28;20032;-61
2022/05/01 19:28:36;;;;;;;2.78;2.35;;;15.40;60.30;;;;;;10500030;28;20040;-61
2022/05/01 19:34:14;;;;;;;2.75;2.47;;;15.40;60.30;;;;;;10514897;28;20043;-61
2022/05/01 19:40:11;;;;;;;2.58;1.92;;;15.40;60.20;;;;;;10503774;28;20037;-61
2022/05/01 19:45:41;;;;;;;3.38;3.08;;;15.40;60.30;;;;;;10509202;28;20040;-61
2022/05/01 19:56:23;;;;;;;;;;;15.40;60.20;;;;;;10498628;28;20271;-57
2022/05/01 20:01:24;;;;;;;3.10;2.55;;;15.40;60.20;;;;;;10497733;28;19935;-60
2022/05/01 20:06:26;;;;;;;3.03;2.10;;;15.40;60.20;;;;;;10512787;28;20035;-62
2022/05/01 20:11:27;;;;;;;3.10;2.72;;;15.40;60.20;;;;;;10496956;28;20032;-60
2022/05/01 20:16:38;;;;;;;3.10;2.80;;;15.40;60.30;;;;;;10512595;28;20033;-59
2022/05/01 20:22:07;;;;;;;2.78;2.38;;;15.40;60.20;;;;;;10511719;28;20033;-60
2022/05/01 20:27:21;;;;;;;3.95;2.67;;;15.40;60.20;;;;;;10511146;28;20082;-60
2022/05/01 20:32:50;;;;;;;2.83;2.53;;;15.40;60.20;;;;;;10496264;28;20435;-60
2022/05/01 20:38:48;;;;;;;3.25;2.72;;;15.40;60.10;;;;;;10495754;28;20029;-60
2022/05/01 20:44:26;;;;;;;3.67;2.95;;;15.40;60.10;;;;;;10495480;28;20411;-59
2022/05/01 20:49:53;;;;;;;3.20;2.50;;;15.40;60.20;;;;;;10495416;28;20603;-58
2022/05/01 20:55:02;;;;;;;6.07;2.70;;;15.40;60.20;;;;;;10510442;28;20028;-61
2022/05/01 21:00:07;;;;;;;2.50;2.30;;;15.40;60.10;;;;;;10510112;28;20028;-60
2022/05/01 21:05:09;;;;;;;3.03;2.47;;;15.40;60.10;;;;;;10510080;28;20228;-59
2022/05/01 21:10:11;;;;;;;3.00;2.50;;;15.40;60.10;;;;;;10495223;28;20557;-60
2022/05/01 21:15:12;;;;;;;3.33;2.72;;;15.40;60.00;;;;;;10494850;28;20481;-60
2022/05/01 21:20:13;;;;;;;2.47;2.25;;;15.40;60.10;;;;;;10494660;28;20101;-61
2022/05/01 21:25:14;;;;;;;2.60;2.08;;;15.40;60.00;;;;;;10493941;28;20013;-62
2022/05/01 21:35:34;;;;;;;2.37;2.17;;;15.40;60.00;;;;;;10494294;28;20123;-61
2022/05/01 21:40:35;;;;;;;4.70;2.80;;;15.40;60.00;;;;;;10494170;28;20055;-60
2022/05/01 21:45:35;;;;;;;4.10;2.80;;;15.40;60.00;;;;;;10493988;28;20116;-61
2022/05/01 21:50:36;;;;;;;3.92;3.05;;;15.40;60.00;;;;;;10493919;28;20480;-59
2022/05/01 21:55:36;;;;;;;3.38;2.83;;;15.40;60.00;;;;;;10493787;28;20033;-60
2022/05/01 22:00:38;;;;;;;4.53;3.03;;;15.40;60.00;;;;;;10493662;28;20108;-60
2022/05/01 22:05:40;;;;;;;2.78;2.28;;;15.40;59.90;;;;;;10493593;28;20037;-60
2022/05/01 22:10:43;;;;;;;3.58;2.83;;;15.40;59.90;;;;;;10493503;28;20027;-61
2022/05/01 22:15:43;;;;;;;4.90;2.47;;;15.40;59.90;;;;;;10493427;28;20099;-60
2022/05/01 22:20:44;;;;;;;3.03;2.28;;;15.40;59.90;;;;;;10508773;28;20103;-60
2022/05/01 22:25:45;;;;;;;3.60;3.00;;;15.40;59.90;;;;;;10493238;28;20064;-60
2022/05/01 22:30:45;;;;;;;3.33;3.03;;;15.40;59.80;;;;;;10508356;28;20029;-62
2022/05/01 22:41:08;;;;;;;3.40;2.88;;;15.30;59.70;;;;;;10501056;28;20044;-61
2022/05/01 22:46:10;;;;;;;2.83;2.47;;;15.30;59.60;;;;;;10516074;28;20062;-60
2022/05/01 22:51:11;;;;;;;5.80;3.08;;;15.40;59.70;;;;;;10500159;28;20499;-60
2022/05/01 22:56:11;;;;;;;5.45;3.15;;;15.30;59.60;;;;;;10515612;28;20059;-62
2022/05/01 23:01:12;;;;;;;3.30;2.97;;;15.30;59.50;;;;;;10499810;28;20478;-60
2022/05/01 23:06:13;;;;;;;3.45;2.30;;;15.30;59.50;;;;;;10499935;28;20108;-61
2022/05/01 23:11:14;;;;;;;3.83;2.85;;;15.30;59.50;;;;;;10499533;28;20108;-61
2022/05/01 23:16:15;;;;;;;3.63;2.78;;;15.30;59.40;;;;;;10499225;28;20144;-61
2022/05/01 23:21:16;;;;;;;5.50;3.22;;;15.30;59.40;;;;;;10514736;28;20377;-61
2022/05/01 23:26:16;;;;;;;3.60;2.70;;;15.30;59.40;;;;;;10514467;28;20146;-61
2022/05/01 23:31:17;;;;;;;3.67;2.50;;;15.30;59.40;;;;;;10498327;28;20095;-61
2022/05/01 23:36:18;;;;;;;2.92;2.25;;;15.30;59.30;;;;;;10514401;28;20107;-61
2022/05/01 23:41:18;;;;;;;3.60;2.92;;;15.30;59.30;;;;;;10498177;28;20471;-59
2022/05/01 23:46:19;;;;;;;5.03;2.78;;;15.30;59.30;;;;;;10498028;28;20633;-60
2022/05/01 23:51:20;;;;;;;5.50;3.30;;;15.30;59.30;;;;;;10497537;28;20033;-59
2022/05/01 23:56:21;;;;;;;3.20;2.65;;;15.30;59.30;;;;;;10497603;28;20056;-61
